createdAt,value
2023-03-22T00:02:30.664Z,80.44
2023-03-22T00:05:02.670Z,80.46
2023-03-22T00:07:34.680Z,80.62
2023-03-22T00:10:08.128Z,80.54
2023-03-22T00:12:40.131Z,79.97
2023-03-22T00:15:15.485Z,80.72
2023-03-22T00:17:47.920Z,81.49
2023-03-22T00:20:20.918Z,81.24
2023-03-22T00:22:53.418Z,80.83
2023-03-22T00:25:25.639Z,81.18
2023-03-22T00:27:57.607Z,81.53
2023-03-22T00:30:29.686Z,80.99
2023-03-22T00:33:01.778Z,80.93
2023-03-22T00:35:34.285Z,80.36
2023-03-22T00:38:14.446Z,80.85
2023-03-22T00:40:47.443Z,80.95
2023-03-22T00:43:19.405Z,81.55
2023-03-22T00:45:51.337Z,80.85
2023-03-22T00:48:23.750Z,80.84
2023-03-22T00:50:55.843Z,80.73
2023-03-22T00:53:29.287Z,80.76
2023-03-22T00:56:01.469Z,80.35
2023-03-22T00:58:36.340Z,80.72
2023-03-22T01:01:09.118Z,80.18
2023-03-22T01:03:41.385Z,79.91
2023-03-22T01:06:13.947Z,80.07
2023-03-22T01:08:46.024Z,80.24
2023-03-22T01:11:18.223Z,80.51
2023-03-22T01:13:50.587Z,80.45
2023-03-22T01:16:22.647Z,80.11
2023-03-22T01:18:54.959Z,79.64
2023-03-22T01:21:27.298Z,79.63
2023-03-22T01:23:59.384Z,80.35
2023-03-22T01:26:31.525Z,80.85
2023-03-22T01:29:03.630Z,80.62
2023-03-22T01:31:35.621Z,80.46
2023-03-22T01:34:07.692Z,80.24
2023-03-22T01:36:40.474Z,79.89
2023-03-22T01:39:12.560Z,80.51
2023-03-22T01:41:45.151Z,79.89
2023-03-22T01:44:21.238Z,79.53
2023-03-22T01:46:54.201Z,80.28
2023-03-22T01:49:29.132Z,80.24
2023-03-22T01:52:04.914Z,80.16
2023-03-22T01:54:49.135Z,80.06
2023-03-22T01:57:33.843Z,79.66
2023-03-22T02:00:10.438Z,79.28
2023-03-22T02:03:10.492Z,79.69
2023-03-22T02:05:47.788Z,80.19
2023-03-22T02:08:21.184Z,80.11
2023-03-22T02:11:06.420Z,80.00
2023-03-22T02:14:03.719Z,79.97
2023-03-22T02:17:25.028Z,80.18
2023-03-22T02:20:47.812Z,79.81
2023-03-22T02:23:55.360Z,80.31
2023-03-22T02:27:05.003Z,80.75
2023-03-22T02:29:45.146Z,80.19
2023-03-22T02:32:38.655Z,80.84
2023-03-22T02:35:37.112Z,80.41
2023-03-22T02:38:26.082Z,80.47
2023-03-22T02:41:08.899Z,80.53
2023-03-22T02:43:52.986Z,80.83
2023-03-22T02:46:33.954Z,80.38
2023-03-22T02:49:15.615Z,80.69
2023-03-22T02:51:52.634Z,80.23
2023-03-22T02:54:29.890Z,80.67
2023-03-22T02:57:06.450Z,80.93
2023-03-22T02:59:41.774Z,81.04
2023-03-22T03:02:18.485Z,81.84
2023-03-22T03:04:54.145Z,81.63
2023-03-22T03:07:30.121Z,81.71
2023-03-22T03:10:01.336Z,82.06
2023-03-22T03:12:33.456Z,82.06
2023-03-22T03:15:13.859Z,81.64
2023-03-22T03:18:02.826Z,82.36
2023-03-22T03:20:46.664Z,82.40
2023-03-22T03:23:31.321Z,82.12
2023-03-22T03:26:08.398Z,81.96
2023-03-22T03:28:49.937Z,82.23
2023-03-22T03:31:33.049Z,81.86
2023-03-22T03:34:14.478Z,82.00
2023-03-22T03:36:52.164Z,81.60
2023-03-22T03:39:25.825Z,80.93
2023-03-22T03:41:59.703Z,80.64
2023-03-22T03:44:33.978Z,80.72
2023-03-22T03:47:08.765Z,80.82
2023-03-22T03:49:40.900Z,80.83
2023-03-22T03:52:13.504Z,81.15
2023-03-22T03:54:45.715Z,81.63
2023-03-22T03:57:20.166Z,81.50
2023-03-22T03:59:52.553Z,81.78
2023-03-22T04:02:33.402Z,81.62
2023-03-22T04:05:07.519Z,81.89
2023-03-22T04:07:40.521Z,81.88
2023-03-22T04:10:13.023Z,82.00
2023-03-22T04:12:45.058Z,82.35
2023-03-22T04:15:19.279Z,82.42
2023-03-22T04:17:55.269Z,81.79
2023-03-22T04:20:29.962Z,82.29
2023-03-22T04:23:01.928Z,82.38
2023-03-22T04:25:34.015Z,82.33
2023-03-22T04:28:09.955Z,82.52
2023-03-22T04:30:45.880Z,83.05
2023-03-22T04:33:39.576Z,82.42
2023-03-22T04:36:31.316Z,82.10
2023-03-22T04:39:17.445Z,81.78
2023-03-22T04:41:56.740Z,81.91
2023-03-22T04:44:29.162Z,81.37
2023-03-22T04:47:01.327Z,82.22
2023-03-22T04:49:34.036Z,82.49
2023-03-22T04:52:06.370Z,82.66
2023-03-22T04:54:42.768Z,83.09
2023-03-22T04:57:14.911Z,83.02
2023-03-22T04:59:49.907Z,83.07
2023-03-22T05:02:22.208Z,82.96
2023-03-22T05:04:54.608Z,82.22
2023-03-22T05:07:36.762Z,82.96
2023-03-22T05:10:11.053Z,83.27
2023-03-22T05:12:43.790Z,83.16
2023-03-22T05:15:21.462Z,83.13
2023-03-22T05:17:55.896Z,83.14
2023-03-22T05:20:28.287Z,82.41
2023-03-22T05:23:21.184Z,82.56
2023-03-22T05:25:58.340Z,82.89
2023-03-22T05:28:32.056Z,82.96
2023-03-22T05:31:17.630Z,83.46
2023-03-22T05:33:55.298Z,83.34
2023-03-22T05:36:30.107Z,83.14
2023-03-22T05:39:15.967Z,83.27
2023-03-22T05:41:48.375Z,83.31
2023-03-22T05:44:20.778Z,83.45
2023-03-22T05:47:07.095Z,83.06
2023-03-22T05:49:42.585Z,82.92
2023-03-22T05:52:14.686Z,82.94
2023-03-22T05:54:56.113Z,82.90
2023-03-22T05:57:30.137Z,82.72
2023-03-22T06:00:06.377Z,82.72
2023-03-22T06:02:46.335Z,82.99
2023-03-22T06:05:21.150Z,83.05
2023-03-22T06:07:54.840Z,82.98
2023-03-22T06:10:28.910Z,82.57
2023-03-22T06:13:01.182Z,82.47
2023-03-22T06:15:36.313Z,82.58
2023-03-22T06:18:13.638Z,82.29
2023-03-22T06:20:48.088Z,82.43
2023-03-22T06:23:23.670Z,82.43
2023-03-22T06:25:55.743Z,82.02
2023-03-22T06:28:30.075Z,82.07
2023-03-22T06:31:10.027Z,81.99
2023-03-22T06:33:52.652Z,81.82
2023-03-22T06:36:42.506Z,81.67
2023-03-22T06:39:43.991Z,81.39
2023-03-22T06:42:18.789Z,81.24
2023-03-22T06:44:53.573Z,81.16
2023-03-22T06:47:35.223Z,81.22
2023-03-22T06:50:18.361Z,81.07
2023-03-22T06:53:06.361Z,80.91
2023-03-22T06:55:40.203Z,80.52
2023-03-22T06:58:27.766Z,80.12
2023-03-22T07:00:59.859Z,80.17
2023-03-22T07:03:32.674Z,79.95
2023-03-22T07:06:11.942Z,79.41
2023-03-22T07:08:46.512Z,78.52
2023-03-22T07:11:20.528Z,78.68
2023-03-22T07:13:58.280Z,78.57
2023-03-22T07:16:31.701Z,78.35
2023-03-22T07:19:07.031Z,78.09
2023-03-22T07:21:39.337Z,77.60
2023-03-22T07:24:13.825Z,77.27
2023-03-22T07:26:46.706Z,77.44
2023-03-22T07:29:22.592Z,77.46
2023-03-22T07:31:55.065Z,77.93
2023-03-22T07:34:30.833Z,77.29
2023-03-22T07:37:08.455Z,76.84
2023-03-22T07:39:41.792Z,76.99
2023-03-22T07:42:14.422Z,76.50
2023-03-22T07:45:08.197Z,76.19
2023-03-22T07:47:49.756Z,76.44
2023-03-22T07:50:42.289Z,76.32
2023-03-22T07:53:15.470Z,76.43
2023-03-22T07:55:50.667Z,75.97
2023-03-22T07:58:22.837Z,75.46
2023-03-22T08:00:55.079Z,74.52
2023-03-22T08:03:47.819Z,74.97
2023-03-22T08:06:37.172Z,74.99
2023-03-22T08:09:09.929Z,75.18
2023-03-22T08:11:42.082Z,74.92
2023-03-22T08:14:15.179Z,73.99
2023-03-22T08:16:48.856Z,74.06
2023-03-22T08:19:21.438Z,73.63
2023-03-22T08:21:54.110Z,73.73
2023-03-22T08:24:39.084Z,73.39
2023-03-22T08:27:14.289Z,73.40
2023-03-22T08:29:51.254Z,71.90
2023-03-22T08:32:23.274Z,71.44
2023-03-22T08:34:55.454Z,70.48
2023-03-22T08:37:27.605Z,69.86
2023-03-22T08:40:00.081Z,69.83
2023-03-22T08:42:40.555Z,69.58
2023-03-22T08:45:13.917Z,69.42
2023-03-22T08:47:50.536Z,69.27
2023-03-22T08:50:23.808Z,69.15
2023-03-22T08:53:02.781Z,69.35
2023-03-22T08:55:37.437Z,69.97
2023-03-22T08:58:20.414Z,69.32
2023-03-22T09:01:01.616Z,68.53
2023-03-22T09:03:42.561Z,68.73
2023-03-22T09:06:16.366Z,68.60
2023-03-22T09:08:52.455Z,68.06
2023-03-22T09:11:26.723Z,67.81
2023-03-22T09:13:58.810Z,67.88
2023-03-22T09:16:33.263Z,67.34
2023-03-22T09:19:06.666Z,67.25
2023-03-22T09:21:39.605Z,67.29
2023-03-22T09:24:15.396Z,66.22
2023-03-22T09:26:51.947Z,66.08
2023-03-22T09:29:24.183Z,66.25
2023-03-22T09:31:56.813Z,66.25
2023-03-22T09:34:32.734Z,65.98
2023-03-22T09:37:05.079Z,65.90
2023-03-22T09:39:46.234Z,65.74
2023-03-22T09:42:39.052Z,65.73
2023-03-22T09:45:17.924Z,65.18
2023-03-22T09:47:54.083Z,65.15
2023-03-22T09:50:29.573Z,64.26
2023-03-22T09:53:01.823Z,63.97
2023-03-22T09:55:42.520Z,63.58
2023-03-22T09:58:26.066Z,63.07
2023-03-22T10:01:04.123Z,62.28
2023-03-22T10:04:01.555Z,61.37
2023-03-22T10:06:34.443Z,60.25
2023-03-22T10:09:15.793Z,59.89
2023-03-22T10:11:54.619Z,60.12
2023-03-22T10:14:35.374Z,59.13
2023-03-22T10:17:12.053Z,59.13
2023-03-22T10:19:56.528Z,58.61
2023-03-22T10:22:34.293Z,58.63
2023-03-22T10:25:08.586Z,58.27
2023-03-22T10:27:41.708Z,57.54
2023-03-22T10:30:23.154Z,57.59
2023-03-22T10:33:01.846Z,57.05
2023-03-22T10:35:35.049Z,57.02
2023-03-22T10:38:17.051Z,56.78
2023-03-22T10:40:50.685Z,55.96
2023-03-22T10:43:29.324Z,55.69
2023-03-22T10:46:03.337Z,56.02
2023-03-22T10:48:38.721Z,56.32
2023-03-22T10:51:17.055Z,55.46
2023-03-22T10:53:52.997Z,54.69
2023-03-22T10:56:25.779Z,53.87
2023-03-22T10:58:58.495Z,54.11
2023-03-22T11:01:34.198Z,53.55
2023-03-22T11:04:13.572Z,52.47
2023-03-22T11:06:56.211Z,52.22
2023-03-22T11:09:28.413Z,51.59
2023-03-22T11:12:02.385Z,50.19
2023-03-22T11:14:36.971Z,50.08
2023-03-22T11:17:14.596Z,48.96
2023-03-22T11:19:59.505Z,48.30
2023-03-22T11:22:36.306Z,48.34
2023-03-22T11:25:14.996Z,47.68
2023-03-22T11:27:55.152Z,46.71
2023-03-22T11:30:30.465Z,46.57
2023-03-22T11:33:18.862Z,46.22
2023-03-22T11:35:57.328Z,46.33
2023-03-22T11:38:37.785Z,45.98
2023-03-22T11:41:15.184Z,46.56
2023-03-22T11:43:52.758Z,47.11
2023-03-22T11:46:26.711Z,46.24
2023-03-22T11:49:03.151Z,45.36
2023-03-22T11:51:37.105Z,45.98
2023-03-22T11:54:19.640Z,46.62
2023-03-22T11:56:52.420Z,46.47
2023-03-22T11:59:28.767Z,46.16
2023-03-22T12:02:14.185Z,45.00
2023-03-22T12:04:49.119Z,43.64
2023-03-22T12:07:24.670Z,42.78
2023-03-22T12:10:03.451Z,41.44
2023-03-22T12:12:40.050Z,40.04
2023-03-22T12:15:20.101Z,41.46
2023-03-22T12:17:59.444Z,41.68
2023-03-22T12:20:42.422Z,40.81
2023-03-22T12:23:18.415Z,42.27
2023-03-22T12:25:56.825Z,42.30
2023-03-22T12:28:34.658Z,42.75
2023-03-22T12:31:08.081Z,42.15
2023-03-22T12:33:46.004Z,42.02
2023-03-22T12:36:21.842Z,41.59
2023-03-22T12:38:57.599Z,41.48
2023-03-22T12:41:33.763Z,39.64
2023-03-22T12:44:12.501Z,36.51
2023-03-22T12:46:50.826Z,36.13
2023-03-22T12:49:29.050Z,34.70
2023-03-22T12:52:12.685Z,34.93
2023-03-22T12:54:48.245Z,35.81
2023-03-22T12:57:20.964Z,36.73
2023-03-22T12:59:55.616Z,37.82
2023-03-22T13:02:32.118Z,36.87
2023-03-22T13:05:06.848Z,36.92
2023-03-22T13:07:53.663Z,37.05
2023-03-22T13:11:02.488Z,35.56
2023-03-22T13:13:49.157Z,33.99
2023-03-22T13:16:43.190Z,33.52
2023-03-22T13:19:36.468Z,34.71
2023-03-22T13:22:21.275Z,34.90
2023-03-22T13:25:29.105Z,35.07
2023-03-22T13:28:03.551Z,35.52
2023-03-22T13:30:49.405Z,36.06
2023-03-22T13:33:28.902Z,36.35
2023-03-22T13:36:07.043Z,36.97
2023-03-22T13:38:42.773Z,38.58
2023-03-22T13:41:25.719Z,38.59
2023-03-22T13:44:00.655Z,39.12
2023-03-22T13:46:48.000Z,39.55
2023-03-22T13:49:36.109Z,39.84
2023-03-22T13:52:11.259Z,40.54
2023-03-22T13:54:49.699Z,40.71
2023-03-22T13:58:01.403Z,41.25
2023-03-22T14:00:44.994Z,41.74
2023-03-22T14:03:25.717Z,42.61
2023-03-22T14:06:09.609Z,42.99
2023-03-22T14:08:44.962Z,43.11
2023-03-22T14:11:31.087Z,43.35
2023-03-22T14:14:14.417Z,42.85
2023-03-22T14:16:53.079Z,42.99
2023-03-22T14:19:31.876Z,43.43
